ジャージー空港の過去48時間の天気

ジャージー空港 (Jersey Airport)

現在時刻: 8/18 14:37 BST (8/18 13:37 UTC) 以下の時間は現地時間です。

過去48時間のMETAR気象情報
時間 風向 風速(m/s) 視程 気温(℃) 湿度(%) 気圧(hPa) 天気現象
18 14:20 西 6 10km以上 20 78 1017
18 13:50 西 6 10km以上 20 83 1017
18 13:20 西 6 10km以上 20 83 1017
18 12:50 西 5 10km以上 20 83 1017
18 12:20 西北西 5 10km以上 21 78 1017
18 11:50 西北西 4 10km以上 20 83 1017
18 11:20 西北西 5 10km以上 20 83 1017
18 10:50 西 5 10km以上 20 83 1017
18 10:20 西北西 4 10km以上 20 88 1017
18 09:50 西 3 10km以上 19 94 1016
18 09:20 西北西 3 10km以上 19 94 1016
18 08:50 西北西 3 9000m 19 94 1016
18 08:20 北西 3 8000m 18 100 1016
18 07:50 北北西 2 6000m 18 100 1015
18 07:20 北北西 2 5000m 17 100 1015
18 06:50 北北西 2 4500m 17 100 1015 もや
18 06:20 不定 1 5000m 17 100 1015
18 05:50 不定 1 4500m 18 94 1015 もや
18 05:20 北北西 2 8000m 17 100 1015
18 04:50 北北東 2 7000m 18 94 1015
18 04:20 北北西 2 7000m 18 94 1015
18 03:50 不定 1 6000m 17 100 1015
18 03:20 北東 2 5000m 17 100 1015
18 02:50 西北西 2 3800m 17 100 1015 煙霧
18 02:20 2 5000m 17 100 1015
18 01:50 北北東 2 8000m 17 100 1015
18 01:20 北北東 2 10km以上 17 100 1014
18 00:50 3 5000m 17 100 1014
18 00:20 北東 2 5000m 17 100 1014
17 23:50 3 5000m 17 100 1014
17 23:20 北北西 4 5000m 18 94 1014
17 22:50 北北西 3 7000m 18 94 1014
17 22:20 北北西 3 6000m 18 94 1014
17 21:50 北北西 3 5000m 18 94 1014
17 21:20 北北西 3 7000m 18 94 1014
17 20:50 北北西 3 7000m 18 94 1014
17 20:20 北北西 4 7000m 18 94 1014
17 19:50 北北西 3 8000m 18 94 1013
17 19:20 北北西 4 10km以上 19 88 1013
17 18:50 4 10km以上 19 83 1012
17 18:20 5 10km以上 19 83 1012
17 17:50 北北西 3 10km以上 19 83 1012
17 17:20 北北西 4 10km以上 19 88 1012
17 16:50 5 10km以上 20 83 1012
17 16:20 5 10km以上 19 88 1012
17 15:50 5 10km以上 20 83 1012
17 15:20 7 10km以上 20 83 1011
17 14:50 北北西 5 10km以上 19 88 1011
17 14:20 5 10km以上 20 88 1011 周辺でしゅう雨
17 13:50 北北西 4 10km以上 20 88 1011 周辺でしゅう雨
17 13:20 不定 2 10km以上 18 100 1011 周辺でしゅう雨 雷
17 12:50 2 10km以上 18 94 1011
17 12:20 北北東 6 10km以上 19 88 1011 しゅう雨
17 11:50 北北東 5 10km以上 20 83 1011
17 11:20 5 10km以上 21 78 1011
17 10:50 北北東 4 10km以上 21 73 1011
17 10:20 3 10km以上 21 73 1010
17 09:50 北北東 2 10km以上 20 83 1010
17 09:20 北東 3 10km以上 18 94 1010
17 08:50 北北東 4 10km以上 18 94 1010
17 08:20 北北東 3 10km以上 18 94 1009
17 07:50 北北東 2 10km以上 18 100 1009
17 07:20 東北東 2 10km以上 17 100 1009
17 06:50 東北東 3 10km以上 17 94 1009
17 06:20 北東 3 10km以上 16 100 1009 地霧
17 05:50 1 10km以上 16 100 1008 地霧
17 05:20 2 9000m 17 94 1009 もや
17 04:50 東南東 1 10km以上 17 94 1009
17 04:20 南南東 2 10km以上 17 94 1009
17 03:50 2 10km以上 17 94 1008
17 03:20 南南東 3 10km以上 17 94 1008
17 02:50 南東 3 10km以上 17 100 1008
17 02:20 南東 3 10km以上 17 94 1008
17 01:50 東南東 2 10km以上 17 94 1008
17 01:20 南東 3 10km以上 18 94 1008
17 00:50 南南東 4 10km以上 18 94 1008
17 00:20 2 10km以上 18 88 1009
16 23:50 3 10km以上 18 88 1009
16 23:20 北東 2 10km以上 19 83 1009
16 22:50 北東 3 10km以上 19 83 1009
16 22:20 北北東 2 10km以上 19 88 1009
16 21:50 東北東 2 10km以上 19 88 1009
16 21:20 北北東 1 10km以上 19 83 1009
16 20:50 北北東 2 10km以上 19 78 1008
16 20:20 西北西 2 10km以上 20 73 1007
16 19:50 西 3 10km以上 21 73 1007
16 19:20 西南西 2 10km以上 23 57 1007
16 18:50 西 3 10km以上 23 57 1007
16 18:20 南南西 2 10km以上 24 50 1007
16 17:50 不定 2 10km以上 24 50 1007
16 17:20 南南東 3 10km以上 24 50 1007
16 16:50 3 10km以上 24 54 1007
16 16:20 4 10km以上 24 54 1007
16 15:50 5 10km以上 24 57 1007
16 15:20 5 10km以上 24 57 1007
16 14:50 南南西 5 10km以上 22 65 1007
EGJJ 181320Z 28012KT 250V310 9999 FEW008 20/16 Q1017
EGJJ 181250Z 27012KT 240V310 9999 FEW005 SCT009 20/17 Q1017
EGJJ 181220Z 27012KT 250V310 9999 FEW005 SCT008 20/17 Q1017
EGJJ 181150Z 27009KT 9999 FEW008 20/17 Q1017
EGJJ 181120Z 29009KT 260V330 9999 FEW012 21/17 Q1017
EGJJ 181050Z 29008KT 260V340 9999 FEW009 20/17 Q1017
EGJJ 181020Z 29010KT 240V330 9999 FEW007 BKN010 20/17 Q1017
EGJJ 180950Z 28010KT 240V310 9999 SCT008 BKN010 20/17 Q1017
EGJJ 180920Z 29008KT 260V320 9999 SCT008 BKN010 20/18 Q1017
EGJJ 180850Z 28006KT 260V320 9999 FEW004 BKN008 19/18 Q1016
EGJJ 180820Z 30005KT 240V340 9999 SCT007 19/18 Q1016
EGJJ 180750Z 30005KT 270V340 9000 FEW006 19/18 Q1016
EGJJ 180720Z 32005KT 280V360 8000 FEW004 BKN005 18/18 Q1016
EGJJ 180650Z 34004KT 290V030 6000 FEW003 SCT004 18/18 Q1015
EGJJ 180620Z 34003KT 300V030 5000 FEW004 BKN005 17/17 Q1015
EGJJ 180550Z 34004KT 300V020 4500 BR FEW004 BKN005 17/17 Q1015
EGJJ 180520Z VRB02KT 5000 FEW004 BKN005 17/17 Q1015
EGJJ 180450Z VRB02KT 4500 BR FEW003 BKN005 18/17 Q1015
EGJJ 180420Z AUTO 33004KT 290V020 8000 FEW005/// BKN006/// BKN007/// 17/17 Q1015
EGJJ 180350Z AUTO 02004KT 340V050 7000 FEW005/// SCT009/// BKN012/// 18/17 Q1015
EGJJ 180320Z AUTO 33003KT 290V020 7000 SCT003/// BKN005/// BKN011/// 18/17 Q1015
EGJJ 180250Z AUTO VRB02KT 6000 SCT006/// SCT008/// BKN010/// 17/17 Q1015
EGJJ 180220Z AUTO 05004KT 5000 FEW007/// BKN011/// BKN015/// 17/17 Q1015
EGJJ 180150Z AUTO 30003KT 3800 HZ FEW008/// 17/17 Q1015
EGJJ 180120Z AUTO 35003KT 310V030 5000 SCT003/// BKN004/// 17/17 Q1015
EGJJ 180050Z AUTO 02003KT 320V070 8000 OVC003/// 17/17 Q1015
EGJJ 180020Z AUTO 02004KT 330V050 9999 BKN003/// OVC004/// 17/17 Q1014
EGJJ 172350Z AUTO 36005KT 320V030 5000 BKN004/// 17/17 Q1014
EGJJ 172320Z AUTO 04004KT 360V070 5000 NCD 17/17 Q1014
EGJJ 172250Z AUTO 36006KT 320V040 5000 BKN004/// 17/17 Q1014
EGJJ 172220Z AUTO 34007KT 290V020 5000 BKN005/// BKN007/// BKN022/// 18/17 Q1014
EGJJ 172150Z AUTO 34005KT 290V040 7000 FEW008/// SCT018/// BKN022/// 18/17 Q1014
EGJJ 172120Z AUTO 33005KT 290V040 6000 FEW015/// BKN017/// BKN020/// 18/17 Q1014
EGJJ 172050Z AUTO 33005KT 290V040 5000 SCT018/// BKN021/// 18/17 Q1014
EGJJ 172020Z 34005KT 270V030 7000 FEW006 SCT010 18/17 Q1014
EGJJ 171950Z 34006KT 310V030 7000 FEW004 SCT006 18/17 Q1014
EGJJ 171920Z 34008KT 290V030 7000 FEW005 SCT007 18/17 Q1014
EGJJ 171850Z 33005KT 280V010 8000 FEW006 SCT016 18/17 Q1013
EGJJ 171820Z 33008KT 300V040 9999 FEW010 19/17 Q1013
EGJJ 171750Z 35008KT 310V030 9999 FEW010 19/16 Q1012
EGJJ 171720Z 35009KT 300V030 9999 FEW009 19/16 Q1012
EGJJ 171650Z 34006KT 300V020 9999 FEW008 19/16 Q1012
EGJJ 171620Z 34007KT 290V040 9999 FEW006 19/17 Q1012
EGJJ 171550Z 35009KT 300V040 9999 FEW008 20/17 Q1012
EGJJ 171520Z 35009KT 300V060 9999 FEW008 19/17 Q1012
EGJJ 171450Z 35010KT 290V050 9999 FEW012 20/17 Q1012
EGJJ 171420Z 35013KT 320V040 9999 FEW007 20/17 Q1011
EGJJ 171350Z 34009KT 290V030 9999 FEW006 19/17 Q1011
EGJJ 171320Z 35009KT 300V040 9999 VCSH FEW008 SCT010 FEW015CB 20/18 Q1011
EGJJ 171250Z 33007KT 270V020 9999 VCSH FEW006 SCT009 FEW015CB 20/18 Q1011
EGJJ 171220Z VRB03KT 9999 VCSH FEW005 FEW015CB 18/18 Q1011 RESHRA RETS
EGJJ 171150Z 01004KT 320V050 9999 TS FEW006 SCT015CB 18/17 Q1011 RESHRA
EGJJ 171120Z 02011KT 340V060 9999 3000NE SHRA FEW006 BKN009 BKN014CB 19/17 Q1011
EGJJ 171050Z 02009KT 340V050 9999 FEW008 SCT010 BKN019 20/17 Q1011
EGJJ 171020Z 01009KT 320V050 9999 FEW012 21/17 Q1011
EGJJ 170950Z 02007KT 340V070 9999 FEW017TCU 21/16 Q1011
EGJJ 170920Z VRB06KT 9999 FEW015TCU 21/16 Q1010
EGJJ 170850Z 03004KT 350V090 9999 FEW004 FEW010TCU 20/17 Q1010
EGJJ 170820Z 05005KT 010V090 9999 FEW007 FEW010TCU 18/17 Q1010
EGJJ 170750Z 03007KT 360V080 9999 FEW007 FEW010TCU 18/17 Q1010
EGJJ 170720Z 03006KT 330V060 9999 FEW007 FEW010TCU 18/17 Q1009
EGJJ 170650Z 03004KT 360V060 9999 FEW004 FEW010TCU 18/18 Q1009
EGJJ 170620Z 06004KT 9999 FEW004 FEW010TCU 17/17 Q1009
EGJJ 170550Z 06005KT 9999 FEW004 17/16 Q1009
EGJJ 170520Z 05005KT 9999 MIFG FEW000 16/16 Q1009
EGJJ 170450Z 10002KT 9999 MIFG FEW000 16/16 Q1008
EGJJ 170420Z AUTO 09003KT 9000 BR FEW009/// 17/16 Q1009
EGJJ 170350Z AUTO 12002KT 9999 NCD 17/16 Q1009
EGJJ 170320Z AUTO 16004KT 9999 FEW008/// 17/16 Q1009
EGJJ 170250Z AUTO 18004KT 9999 NCD 17/16 Q1008
EGJJ 170220Z AUTO 15005KT 9999 NCD 17/16 Q1008
EGJJ 170150Z AUTO 14006KT 9999 NCD 17/17 Q1008
EGJJ 170120Z AUTO 14006KT 9999 NCD 17/16 Q1008
EGJJ 170050Z AUTO 12004KT 9999 NCD 17/16 Q1008
EGJJ 170020Z AUTO 14006KT 9999 NCD 18/17 Q1008
EGJJ 162350Z AUTO 15008KT 9999 NCD 18/17 Q1008
EGJJ 162320Z AUTO 09003KT 9999 NCD 18/16 Q1009
EGJJ 162250Z AUTO 09005KT 9999 FEW043/// 18/16 Q1009
EGJJ 162220Z AUTO 05004KT 360V070 9999 FEW041/// SCT046/// 19/16 Q1009
EGJJ 162150Z AUTO 05005KT 9999 BKN040/// 19/16 Q1009
EGJJ 162120Z 02004KT CAVOK 19/17 Q1009
EGJJ 162050Z 06004KT 9999 FEW040CB 19/17 Q1009
EGJJ 162020Z 03002KT 9999 FEW040CB 19/16 Q1009
EGJJ 161950Z 02003KT 330V050 9999 FEW040CB 19/15 Q1008
EGJJ 161920Z 30004KT 9999 FEW040CB 20/15 Q1007
EGJJ 161850Z 28006KT 9999 FEW040 21/16 Q1007
EGJJ 161820Z 25003KT 220V280 9999 FEW044 23/14 Q1007
EGJJ 161750Z 26006KT 170V290 9999 SCT044 23/14 Q1007
EGJJ 161720Z 20004KT 150V270 9999 FEW048 24/13 Q1007
EGJJ 161650Z VRB04KT 9999 FEW049 24/13 Q1007
EGJJ 161620Z 16005KT 080V240 9999 FEW015CB 24/13 Q1007
EGJJ 161550Z 19006KT 140V240 9999 FEW015 24/14 Q1007
EGJJ 161520Z 18007KT 130V220 9999 FEW014 24/14 Q1007
EGJJ 161450Z 19009KT 150V230 9999 FEW014 24/15 Q1007
EGJJ 161420Z 19010KT 160V230 9999 FEW014 24/15 Q1007
EGJJ 161350Z 20010KT 170V230 9999 FEW014 22/15 Q1007